createdAt,value
2022-10-02T00:01:47.791Z,100231.66
2022-10-02T00:06:52.663Z,100215.84
2022-10-02T00:11:58.195Z,100225.13
2022-10-02T00:17:01.343Z,100230.78
2022-10-02T00:22:26.497Z,100243.31
2022-10-02T00:28:01.900Z,100246.38
2022-10-02T00:33:19.496Z,100239.91
2022-10-02T00:38:53.600Z,100228.09
2022-10-02T00:44:50.430Z,100251.47
2022-10-02T00:50:11.420Z,100252.31
2022-10-02T00:55:46.501Z,100256.25
2022-10-02T01:01:02.489Z,100230.22
2022-10-02T01:06:03.918Z,100244.28
2022-10-02T01:11:06.567Z,100240.31
2022-10-02T01:16:12.235Z,100237.53
2022-10-02T01:21:42.891Z,100225.84
2022-10-02T01:26:44.198Z,100224.16
2022-10-02T01:31:45.510Z,100231.91
2022-10-02T01:36:47.085Z,100233.03
2022-10-02T01:41:48.420Z,100266.53
2022-10-02T01:47:02.111Z,100252.19
2022-10-02T01:52:30.461Z,100253.59
2022-10-02T01:57:56.845Z,100257.09
2022-10-02T02:03:31.443Z,100264.28
2022-10-02T02:08:45.627Z,100263.56
2022-10-02T02:14:01.936Z,100258.50
2022-10-02T02:19:19.598Z,100258.94
2022-10-02T02:24:25.826Z,100264.28
2022-10-02T02:29:30.713Z,100257.25
2022-10-02T02:34:35.638Z,100248.66
2022-10-02T02:39:51.564Z,100250.47
2022-10-02T02:44:56.124Z,100253.44
2022-10-02T02:50:02.782Z,100256.41
2022-10-02T02:55:12.881Z,100253.44
2022-10-02T03:00:19.823Z,100264.81
2022-10-02T03:05:24.192Z,100262.28
2022-10-02T03:10:39.783Z,100274.41
2022-10-02T03:15:47.177Z,100271.03
2022-10-02T03:21:02.214Z,100253.88
2022-10-02T03:26:11.841Z,100242.72
2022-10-02T03:31:15.594Z,100244.00
2022-10-02T03:36:24.434Z,100227.38
2022-10-02T03:41:25.666Z,100227.25
2022-10-02T03:46:27.056Z,100245.09
2022-10-02T03:51:28.302Z,100262.72
2022-10-02T03:56:44.006Z,100274.66
2022-10-02T04:01:51.649Z,100277.50
2022-10-02T04:07:11.766Z,100256.78
2022-10-02T04:12:17.116Z,100263.72
2022-10-02T04:17:29.773Z,100268.34
2022-10-02T04:22:36.906Z,100262.03
2022-10-02T04:27:44.414Z,100267.91
2022-10-02T04:32:46.952Z,100272.72
2022-10-02T04:38:04.089Z,100265.97
2022-10-02T04:43:37.987Z,100284.53
2022-10-02T04:49:06.832Z,100294.38
2022-10-02T04:54:37.606Z,100277.94
2022-10-02T04:59:41.915Z,100280.88
2022-10-02T05:05:19.448Z,100273.84
2022-10-02T05:10:32.868Z,100269.47
2022-10-02T05:15:57.684Z,100266.66
2022-10-02T05:21:16.219Z,100260.63
2022-10-02T05:26:29.571Z,100274.97
2022-10-02T05:31:47.430Z,100266.94
2022-10-02T05:36:57.941Z,100259.44
2022-10-02T05:42:23.064Z,100273.69
2022-10-02T05:47:31.718Z,100276.22
2022-10-02T05:52:40.370Z,100280.59
2022-10-02T05:58:01.593Z,100295.66
2022-10-02T06:03:12.667Z,100297.16
2022-10-02T06:08:22.435Z,100299.72
2022-10-02T06:13:35.819Z,100289.59
2022-10-02T06:18:41.461Z,100282.59
2022-10-02T06:23:47.606Z,100277.66
2022-10-02T06:28:54.111Z,100277.94
2022-10-02T06:33:55.453Z,100281.44
2022-10-02T06:39:06.539Z,100287.91
2022-10-02T06:44:49.953Z,100296.06
2022-10-02T06:50:20.455Z,100303.53
2022-10-02T06:55:52.885Z,100305.22
2022-10-02T07:01:46.621Z,100301.81
2022-10-02T07:07:14.835Z,100306.66
2022-10-02T07:12:37.943Z,100310.56
2022-10-02T07:18:10.327Z,100312.09
2022-10-02T07:23:32.923Z,100300.00
2022-10-02T07:28:43.721Z,100316.19
2022-10-02T07:34:22.462Z,100312.69
2022-10-02T07:39:42.985Z,100311.00
2022-10-02T07:45:08.024Z,100319.31
2022-10-02T07:50:31.104Z,100327.88
2022-10-02T07:55:33.738Z,100314.66
2022-10-02T08:01:02.210Z,100326.59
2022-10-02T08:06:05.288Z,100316.34
2022-10-02T08:11:11.611Z,100320.16
2022-10-02T08:16:16.316Z,100328.31
2022-10-02T08:21:20.833Z,100340.28
2022-10-02T08:26:35.167Z,100330.84
2022-10-02T08:31:37.382Z,100318.59
2022-10-02T08:36:58.226Z,100341.41
2022-10-02T08:42:47.290Z,100323.06
2022-10-02T08:48:24.658Z,100320.84
2022-10-02T08:53:32.201Z,100335.16
2022-10-02T08:59:10.854Z,100344.16
2022-10-02T09:04:40.536Z,100348.69
2022-10-02T09:10:09.786Z,100353.47
2022-10-02T09:15:15.986Z,100361.06
2022-10-02T09:20:40.560Z,100359.38
2022-10-02T09:25:50.773Z,100345.56
2022-10-02T09:31:03.691Z,100336.16
2022-10-02T09:36:51.966Z,100348.97
2022-10-02T09:42:30.926Z,100353.75
2022-10-02T09:48:05.010Z,100324.88
2022-10-02T09:53:15.885Z,100341.19
2022-10-02T09:59:16.462Z,100335.56
2022-10-02T10:05:05.469Z,100326.09
2022-10-02T10:10:32.339Z,100329.06
2022-10-02T10:15:56.475Z,100292.78
2022-10-02T10:21:06.503Z,100325.53
2022-10-02T10:26:28.011Z,100322.47
2022-10-02T10:31:48.667Z,100327.53
2022-10-02T10:37:24.899Z,100334.78
2022-10-02T10:43:06.946Z,100336.22
2022-10-02T10:48:27.475Z,100344.13
2022-10-02T10:54:02.147Z,100329.91
2022-10-02T10:59:27.104Z,100357.59
2022-10-02T11:04:55.347Z,100359.59
2022-10-02T11:10:18.169Z,100349.19
2022-10-02T11:15:39.321Z,100361.31
2022-10-02T11:20:56.351Z,100368.34
2022-10-02T11:26:09.595Z,100350.28
2022-10-02T11:31:24.225Z,100350.16
2022-10-02T11:36:52.831Z,100352.53
2022-10-02T11:42:16.581Z,100372.78
2022-10-02T11:47:35.388Z,100370.88
2022-10-02T11:52:55.995Z,100375.94
2022-10-02T11:58:09.433Z,100382.00
2022-10-02T12:03:24.637Z,100366.91
2022-10-02T12:08:54.420Z,100377.28
2022-10-02T12:14:08.215Z,100376.59
2022-10-02T12:19:18.589Z,100374.75
2022-10-02T12:25:01.370Z,100370.94
2022-10-02T12:30:16.080Z,100371.94
2022-10-02T12:35:27.508Z,100365.72
2022-10-02T12:41:00.865Z,100363.13
2022-10-02T12:46:33.964Z,100362.81
2022-10-02T12:52:13.139Z,100348.38
2022-10-02T12:57:46.524Z,100363.03
2022-10-02T13:03:16.065Z,100354.41
2022-10-02T13:08:48.237Z,100364.84
2022-10-02T13:14:02.295Z,100359.31
2022-10-02T13:19:35.509Z,100358.88
2022-10-02T13:24:53.572Z,100365.06
2022-10-02T13:30:16.588Z,100365.34
2022-10-02T13:35:45.673Z,100367.25
2022-10-02T13:41:00.464Z,100364.59
2022-10-02T13:46:24.789Z,100368.97
2022-10-02T13:51:36.799Z,100374.41
2022-10-02T13:56:51.085Z,100376.09
2022-10-02T14:02:33.902Z,100368.97
2022-10-02T14:07:50.609Z,100376.56
2022-10-02T14:13:20.589Z,100367.50
2022-10-02T14:19:03.013Z,100361.25
2022-10-02T14:24:46.236Z,100371.06
2022-10-02T14:29:54.597Z,100374.75
2022-10-02T14:35:23.433Z,100372.75
2022-10-02T14:40:33.806Z,100375.28
2022-10-02T14:45:59.931Z,100367.78
2022-10-02T14:51:19.733Z,100373.56
2022-10-02T14:56:48.011Z,100398.09
2022-10-02T15:02:10.428Z,100392.88
2022-10-02T15:07:15.015Z,100395.97
2022-10-02T15:12:24.034Z,100397.09
2022-10-02T15:17:53.371Z,100391.19
2022-10-02T15:23:00.660Z,100392.63
2022-10-02T15:28:35.938Z,100404.03
2022-10-02T15:33:57.738Z,100389.81
2022-10-02T15:39:36.792Z,100393.53
2022-10-02T15:44:56.955Z,100392.53
2022-10-02T15:50:21.594Z,100392.94
2022-10-02T15:55:39.985Z,100403.66
2022-10-02T16:01:15.731Z,100404.25
2022-10-02T16:06:55.020Z,100407.91
2022-10-02T16:12:01.351Z,100415.53
2022-10-02T16:17:16.556Z,100416.56
2022-10-02T16:22:55.427Z,100429.00
2022-10-02T16:28:34.127Z,100438.44
2022-10-02T16:34:01.571Z,100441.28
2022-10-02T16:39:24.290Z,100452.03
2022-10-02T16:45:13.360Z,100458.22
2022-10-02T16:50:27.888Z,100465.28
2022-10-02T16:55:37.693Z,100453.84
2022-10-02T17:00:54.455Z,100470.63
2022-10-02T17:06:32.469Z,100481.34
2022-10-02T17:11:47.218Z,100480.94
2022-10-02T17:16:57.713Z,100513.50
2022-10-02T17:22:03.963Z,100521.09
2022-10-02T17:27:17.029Z,100529.28
2022-10-02T17:32:46.442Z,100535.06
2022-10-02T17:38:07.386Z,100546.19
2022-10-02T17:43:32.165Z,100540.44
2022-10-02T17:48:39.421Z,100550.69
2022-10-02T17:54:13.597Z,100568.47
2022-10-02T17:59:50.139Z,100566.91
2022-10-02T18:05:18.998Z,100576.19
2022-10-02T18:10:26.989Z,100596.47
2022-10-02T18:15:49.501Z,100595.19
2022-10-02T18:21:03.432Z,100611.81
2022-10-02T18:26:14.409Z,100628.72
2022-10-02T18:31:55.278Z,100623.91
2022-10-02T18:37:24.954Z,100623.75
2022-10-02T18:43:15.384Z,100643.44
2022-10-02T18:48:47.700Z,100637.81
2022-10-02T18:54:11.677Z,100645.38
2022-10-02T18:59:36.110Z,100649.06
2022-10-02T19:04:50.859Z,100662.28
2022-10-02T19:10:28.790Z,100666.66
2022-10-02T19:15:32.182Z,100665.53
2022-10-02T19:20:33.894Z,100679.94
2022-10-02T19:25:36.261Z,100677.13
2022-10-02T19:30:40.469Z,100687.63
2022-10-02T19:35:44.184Z,100701.28
2022-10-02T19:40:51.803Z,100692.25
2022-10-02T19:45:56.774Z,100716.38
2022-10-02T19:51:03.961Z,100724.41
2022-10-02T19:56:15.516Z,100726.50
2022-10-02T20:01:23.039Z,100738.91
2022-10-02T20:06:27.496Z,100712.22
2022-10-02T20:11:42.981Z,100748.91
2022-10-02T20:17:02.706Z,100758.06
2022-10-02T20:22:16.316Z,100758.97
2022-10-02T20:27:42.773Z,100754.88
2022-10-02T20:33:10.077Z,100773.16
2022-10-02T20:38:28.750Z,100761.81
2022-10-02T20:43:40.564Z,100776.44
2022-10-02T20:49:09.917Z,100783.59
2022-10-02T20:54:42.339Z,100800.16
2022-10-02T21:00:03.402Z,100799.84
2022-10-02T21:05:11.098Z,100796.63
2022-10-02T21:10:24.479Z,100804.22
2022-10-02T21:15:34.822Z,100814.78
2022-10-02T21:20:59.682Z,100810.31
2022-10-02T21:26:09.989Z,100819.66
2022-10-02T21:31:38.706Z,100828.03
2022-10-02T21:36:52.792Z,100833.38
2022-10-02T21:42:17.658Z,100834.34
2022-10-02T21:47:25.639Z,100837.28
2022-10-02T21:53:05.301Z,100813.53
2022-10-02T21:58:49.185Z,100831.63
2022-10-02T22:04:36.019Z,100868.31
2022-10-02T22:10:02.567Z,100874.28
2022-10-02T22:15:21.792Z,100867.00
2022-10-02T22:20:43.058Z,100882.34
2022-10-02T22:25:58.927Z,100893.28
2022-10-02T22:31:10.926Z,100901.91
2022-10-02T22:36:30.865Z,100912.34
2022-10-02T22:41:40.926Z,100911.50
2022-10-02T22:47:07.219Z,100929.00
2022-10-02T22:52:31.481Z,100935.91
2022-10-02T22:57:39.519Z,100941.16
2022-10-02T23:03:02.135Z,100932.19
2022-10-02T23:08:18.310Z,100936.19
2022-10-02T23:13:21.049Z,100940.78
2022-10-02T23:18:57.056Z,100948.09
2022-10-02T23:24:21.709Z,100950.28
2022-10-02T23:29:45.198Z,100961.44
2022-10-02T23:35:08.000Z,100967.75
2022-10-02T23:40:22.013Z,100954.75
2022-10-02T23:45:38.941Z,100968.22
2022-10-02T23:51:01.781Z,100952.09
2022-10-02T23:56:22.729Z,100973.31
